メインページ
METAR-TAF:

METAR-TAF

空港 :

Griffiss_Air_Force_Base

Rome, ニューヨーク, アメリカ合衆国

緯度: 43-14N, 経度: 075-24W, 海抜: 154m

現時点の気象観測

当レポートは19分前の23:53(UTC)に作成
の風 5kt
気温 18°C
湿度 64%
気圧 1019 hPa
視程: 16.1km
高度8500ftの雲はほとんどない

METAR: KRME 232353Z 35005KT 10SM FEW085 18/11 A3009 RMK AO2 SLP187 T01830111 10233 20183 52015

時間: 20:12 (00:12 UTC)

予報

当レポートは52分前の23:20(UTC)に作成
予報は24日の 00時(UTC)から 24日の 24時(UTC)まで有効
の風 5kt
視程: 10km
高度5000ftの雲は散在している
24日の 0200時(UTC)から
変向風 3kt
視程: 10km
晴天
24日の 1500時(UTC)から
北/北西の風 6kt
視程: 10km
高度5000ftの雲は散在している

TAF: KRME 232320Z 2400/2424 36005KT P6SM SCT050 FM240200 VRB03KT P6SM SKC FM241500 34006KT P6SM SCT050

4,000以上の空港の気象観測と天気予報(METAR報とTAF報)

利用可能な観測所は地図上に黄色い丸と赤い丸で示す。

丸の上にカーソルを重ねると観測所名を参照できる。

次にクリックすると気象観測と天気予報を参照できる。

マップの切り替え:黒色「×」印の緑ボタンをクリックして拡大、「-」印の緑ボタンをクリックして縮小、緑色の三角印をクリックして隣りの地図に切り替え


METAR-TAF: